Aviation Digital Data Service (ADDS)

Output produced by METARs form (0611 UTC 23 August 2017)
found at http://aviationweather.gov/adds/metars/
 
KBTV 230541Z 2306/2406 18012KT P6SM VCSH BKN040 BKN050 
     TEMPO 2306/2310 5SM -SHRA BKN025 OVC035 
     FM231000 23007KT P6SM SCT035 
     FM231600 25011G19KT P6SM FEW080 
     FM232300 27007KT P6SM SCT080